createdAt,value
2023-04-01T00:00:17.230Z,26.20
2023-04-01T00:02:44.972Z,26.20
2023-04-01T00:05:13.007Z,26.20
2023-04-01T00:07:41.415Z,26.20
2023-04-01T00:10:10.710Z,26.20
2023-04-01T00:12:39.034Z,26.20
2023-04-01T00:15:12.876Z,26.20
2023-04-01T00:17:41.903Z,26.20
2023-04-01T00:20:10.472Z,26.20
2023-04-01T00:22:38.319Z,26.20
2023-04-01T00:25:07.095Z,26.20
2023-04-01T00:27:35.004Z,26.20
2023-04-01T00:30:03.120Z,26.20
2023-04-01T00:32:31.576Z,26.20
2023-04-01T00:35:01.109Z,26.20
2023-04-01T00:37:29.454Z,26.10
2023-04-01T00:39:57.729Z,26.10
2023-04-01T00:42:26.774Z,26.10
2023-04-01T00:44:55.861Z,26.10
2023-04-01T00:47:24.451Z,26.10
2023-04-01T00:49:54.967Z,26.10
2023-04-01T00:52:26.380Z,26.10
2023-04-01T00:54:57.692Z,26.10
2023-04-01T00:57:30.064Z,26.10
2023-04-01T00:59:57.866Z,26.10
2023-04-01T01:02:26.031Z,26.10
2023-04-01T01:04:54.143Z,26.10
2023-04-01T01:07:29.922Z,26.10
2023-04-01T01:10:05.740Z,26.10
2023-04-01T01:12:40.668Z,26.10
2023-04-01T01:15:14.407Z,26.10
2023-04-01T01:17:51.452Z,26.00
2023-04-01T01:20:46.253Z,26.10
2023-04-01T01:23:52.938Z,26.00
2023-04-01T01:26:53.986Z,26.00
2023-04-01T01:29:39.513Z,26.00
2023-04-01T01:32:16.059Z,26.00
2023-04-01T01:34:53.453Z,26.00
2023-04-01T01:37:25.823Z,26.00
2023-04-01T01:39:57.269Z,26.00
2023-04-01T01:42:27.768Z,26.00
2023-04-01T01:44:57.924Z,26.00
2023-04-01T01:47:27.668Z,26.00
2023-04-01T01:49:57.210Z,26.00
2023-04-01T01:52:26.484Z,26.00
2023-04-01T01:54:55.837Z,26.00
2023-04-01T01:57:26.957Z,26.00
2023-04-01T01:59:58.229Z,26.00
2023-04-01T02:02:28.277Z,25.90
2023-04-01T02:04:56.209Z,25.90
2023-04-01T02:07:29.282Z,26.00
2023-04-01T02:09:57.386Z,25.90
2023-04-01T02:12:27.365Z,25.90
2023-04-01T02:14:59.720Z,25.90
2023-04-01T02:17:29.751Z,25.90
2023-04-01T02:20:01.088Z,25.90
2023-04-01T02:22:33.041Z,25.90
2023-04-01T02:25:04.262Z,25.90
2023-04-01T02:27:32.845Z,25.90
2023-04-01T02:30:00.795Z,25.90
2023-04-01T02:32:30.884Z,25.90
2023-04-01T02:35:00.134Z,25.90
2023-04-01T02:37:27.970Z,25.90
2023-04-01T02:40:01.366Z,25.90
2023-04-01T02:42:28.983Z,25.90
2023-04-01T02:44:56.582Z,25.90
2023-04-01T02:47:24.243Z,25.90
2023-04-01T02:49:51.910Z,25.90
2023-04-01T02:52:19.602Z,25.90
2023-04-01T02:54:47.218Z,25.90
2023-04-01T02:57:16.425Z,25.90
2023-04-01T02:59:44.122Z,25.90
2023-04-01T03:02:11.883Z,25.90
2023-04-01T03:04:39.527Z,25.90
2023-04-01T03:07:07.181Z,25.80
2023-04-01T03:09:34.764Z,25.80
2023-04-01T03:12:02.378Z,25.80
2023-04-01T03:14:31.364Z,25.80
2023-04-01T03:16:59.034Z,25.80
2023-04-01T03:19:26.697Z,25.80
2023-04-01T03:21:54.485Z,25.80
2023-04-01T03:24:22.504Z,25.80
2023-04-01T03:26:50.657Z,25.80
2023-04-01T03:29:18.248Z,25.80
2023-04-01T03:31:47.276Z,25.80
2023-04-01T03:34:14.970Z,25.80
2023-04-01T03:36:42.687Z,25.80
2023-04-01T03:39:10.390Z,25.70
2023-04-01T03:41:38.568Z,25.80
2023-04-01T03:44:06.363Z,25.80
2023-04-01T03:46:34.036Z,25.80
2023-04-01T03:49:03.218Z,25.80
2023-04-01T03:51:31.233Z,25.80
2023-04-01T03:53:58.813Z,25.70
2023-04-01T03:56:26.438Z,25.70
2023-04-01T03:58:54.033Z,25.80
2023-04-01T04:01:23.800Z,25.70
2023-04-01T04:03:52.225Z,25.70
2023-04-01T04:06:21.944Z,25.70
2023-04-01T04:08:49.769Z,25.70
2023-04-01T04:11:17.726Z,25.70
2023-04-01T04:13:45.404Z,25.70
2023-04-01T04:16:13.645Z,25.70
2023-04-01T04:18:41.375Z,25.70
2023-04-01T04:21:09.077Z,25.70
2023-04-01T04:23:38.276Z,25.70
2023-04-01T04:26:08.305Z,25.70
2023-04-01T04:28:36.419Z,25.70
2023-04-01T04:31:06.546Z,25.70
2023-04-01T04:33:34.411Z,25.70
2023-04-01T04:36:02.683Z,25.70
2023-04-01T04:38:30.511Z,25.70
2023-04-01T04:40:59.858Z,25.70
2023-04-01T04:43:27.563Z,25.70
2023-04-01T04:45:55.413Z,25.70
2023-04-01T04:48:23.133Z,25.70
2023-04-01T04:50:52.404Z,25.70
2023-04-01T04:53:21.064Z,25.60
2023-04-01T04:55:50.618Z,25.60
2023-04-01T04:58:19.811Z,25.60
2023-04-01T05:00:48.288Z,25.60
2023-04-01T05:03:16.529Z,25.70
2023-04-01T05:05:50.682Z,25.60
2023-04-01T05:08:18.550Z,25.60
2023-04-01T05:10:46.672Z,25.60
2023-04-01T05:13:14.371Z,25.60
2023-04-01T05:15:43.417Z,25.60
2023-04-01T05:18:11.071Z,25.60
2023-04-01T05:20:38.876Z,25.60
2023-04-01T05:23:06.571Z,25.60
2023-04-01T05:25:34.313Z,25.60
2023-04-01T05:28:02.139Z,25.60
2023-04-01T05:30:29.790Z,25.60
2023-04-01T05:32:58.808Z,25.60
2023-04-01T05:35:26.605Z,25.60
2023-04-01T05:37:54.356Z,25.60
2023-04-01T05:40:22.223Z,25.60
2023-04-01T05:42:49.868Z,25.60
2023-04-01T05:45:17.761Z,25.60
2023-04-01T05:47:45.546Z,25.60
2023-04-01T05:50:14.670Z,25.60
2023-04-01T05:52:42.444Z,25.50
2023-04-01T05:55:10.943Z,25.60
2023-04-01T05:57:38.901Z,25.50
2023-04-01T06:00:07.880Z,25.50
2023-04-01T06:02:35.533Z,25.50
2023-04-01T06:05:14.219Z,25.50
2023-04-01T06:07:43.369Z,25.50
2023-04-01T06:10:16.627Z,25.50
2023-04-01T06:12:53.739Z,25.50
2023-04-01T06:15:27.861Z,25.50
2023-04-01T06:18:30.416Z,25.50
2023-04-01T06:21:04.024Z,25.50
2023-04-01T06:23:51.782Z,25.50
2023-04-01T06:26:35.842Z,25.50
2023-04-01T06:29:20.439Z,25.50
2023-04-01T06:32:03.563Z,25.50
2023-04-01T06:34:49.073Z,25.50
2023-04-01T06:37:39.182Z,25.50
2023-04-01T06:40:27.974Z,25.50
2023-04-01T06:43:05.284Z,25.50
2023-04-01T06:45:40.817Z,25.50
2023-04-01T06:48:20.995Z,25.50
2023-04-01T06:50:58.574Z,25.50
2023-04-01T06:53:35.270Z,25.50
2023-04-01T06:56:09.404Z,25.50
2023-04-01T06:58:40.754Z,25.50
2023-04-01T07:01:11.783Z,25.50
2023-04-01T07:03:43.644Z,25.50
2023-04-01T07:06:16.206Z,25.50
2023-04-01T07:08:46.729Z,25.50
2023-04-01T07:11:27.159Z,25.60
2023-04-01T07:13:59.959Z,25.60
2023-04-01T07:16:31.943Z,25.60
2023-04-01T07:19:05.063Z,25.70
2023-04-01T07:21:37.620Z,25.70
2023-04-01T07:24:11.053Z,25.70
2023-04-01T07:26:40.058Z,25.70
2023-04-01T07:29:11.888Z,25.80
2023-04-01T07:31:51.538Z,25.80
2023-04-01T07:34:23.398Z,25.80
2023-04-01T07:36:56.490Z,25.90
2023-04-01T07:39:37.282Z,25.90
2023-04-01T07:42:17.852Z,25.90
2023-04-01T07:44:56.843Z,26.00
2023-04-01T07:47:38.315Z,26.00
2023-04-01T07:50:14.425Z,26.00
2023-04-01T07:52:50.741Z,26.00
2023-04-01T07:55:25.951Z,26.00
2023-04-01T07:58:02.176Z,26.00
2023-04-01T08:00:35.418Z,26.00
2023-04-01T08:03:19.144Z,26.10
2023-04-01T08:05:55.500Z,26.10
2023-04-01T08:08:34.850Z,26.10
2023-04-01T08:11:12.934Z,26.10
2023-04-01T08:13:47.962Z,26.10
2023-04-01T08:16:20.793Z,26.10
2023-04-01T08:18:57.026Z,26.20
2023-04-01T08:21:29.275Z,26.10
2023-04-01T08:23:59.510Z,26.20
2023-04-01T08:26:33.032Z,26.20
2023-04-01T08:29:06.068Z,26.20
2023-04-01T08:31:39.468Z,26.20
2023-04-01T08:34:15.723Z,26.20
2023-04-01T08:36:47.013Z,26.20
2023-04-01T08:39:20.510Z,26.20
2023-04-01T08:42:08.344Z,26.20
2023-04-01T08:45:01.509Z,26.20
2023-04-01T08:47:44.428Z,26.20
2023-04-01T08:50:36.597Z,26.20
2023-04-01T08:53:09.339Z,26.20
2023-04-01T08:55:46.152Z,26.20
2023-04-01T08:58:32.835Z,26.20
2023-04-01T09:01:15.965Z,26.20
2023-04-01T09:04:05.201Z,26.20
2023-04-01T09:06:42.688Z,26.20
2023-04-01T09:09:35.880Z,26.20
2023-04-01T09:12:38.600Z,26.20
2023-04-01T09:15:41.766Z,26.20
2023-04-01T09:18:34.995Z,26.20
2023-04-01T09:21:33.043Z,26.20
2023-04-01T09:24:25.724Z,26.20
2023-04-01T09:27:06.952Z,26.20
2023-04-01T09:29:51.824Z,26.20
2023-04-01T09:32:38.508Z,26.20
2023-04-01T09:35:22.793Z,26.20
2023-04-01T09:37:56.876Z,26.20
2023-04-01T09:40:38.420Z,26.20
2023-04-01T09:43:25.147Z,26.20
2023-04-01T09:46:18.654Z,26.30
2023-04-01T09:49:18.602Z,26.30
2023-04-01T09:51:56.155Z,26.30
2023-04-01T09:54:37.309Z,26.30
2023-04-01T09:57:35.905Z,26.30
2023-04-01T10:00:42.051Z,26.30
2023-04-01T10:03:46.328Z,26.30
2023-04-01T10:06:52.059Z,26.30
2023-04-01T10:09:48.138Z,26.30
2023-04-01T10:12:36.510Z,26.30
2023-04-01T10:15:36.862Z,26.30
2023-04-01T10:18:43.733Z,26.30
2023-04-01T10:21:27.323Z,26.30
2023-04-01T10:24:17.139Z,26.30
2023-04-01T10:27:05.982Z,26.40
2023-04-01T10:29:51.988Z,26.40
2023-04-01T10:32:44.811Z,26.40
2023-04-01T10:35:30.433Z,26.40
2023-04-01T10:38:30.055Z,26.50
2023-04-01T10:41:37.449Z,26.50
2023-04-01T10:44:37.075Z,26.50
2023-04-01T10:47:28.558Z,26.50
2023-04-01T10:50:23.359Z,26.50
2023-04-01T10:53:34.395Z,26.50
2023-04-01T10:56:34.520Z,26.50
2023-04-01T10:59:30.338Z,26.50
2023-04-01T11:02:26.804Z,26.50
2023-04-01T11:05:32.493Z,26.50
2023-04-01T11:08:41.992Z,26.60
2023-04-01T11:11:55.097Z,26.50
2023-04-01T11:14:53.178Z,26.60
2023-04-01T11:17:51.937Z,26.60
2023-04-01T11:20:34.025Z,26.60
2023-04-01T11:23:19.399Z,26.60
2023-04-01T11:26:11.724Z,26.60
2023-04-01T11:29:08.643Z,26.60
2023-04-01T11:31:50.014Z,26.60
2023-04-01T11:34:30.714Z,26.60
2023-04-01T11:37:10.332Z,26.60
2023-04-01T11:39:46.150Z,26.60
2023-04-01T11:42:22.879Z,26.70
2023-04-01T11:44:57.814Z,26.70
2023-04-01T11:47:48.327Z,26.70
2023-04-01T11:50:26.672Z,26.70
2023-04-01T11:53:20.446Z,26.70
2023-04-01T11:55:56.466Z,26.70
2023-04-01T11:58:36.233Z,26.70
2023-04-01T12:01:20.521Z,26.70
2023-04-01T12:04:17.534Z,26.70
2023-04-01T12:06:53.244Z,26.70
2023-04-01T12:09:31.113Z,26.80
2023-04-01T12:12:11.874Z,26.80
2023-04-01T12:14:44.449Z,26.80
2023-04-01T12:17:28.307Z,26.80
2023-04-01T12:20:02.135Z,26.80
2023-04-01T12:22:46.430Z,26.80
2023-04-01T12:25:29.232Z,26.80
2023-04-01T12:30:49.796Z,26.90
2023-04-01T12:33:49.940Z,26.90
2023-04-01T12:36:32.782Z,26.90
2023-04-01T12:39:22.924Z,26.90
2023-04-01T12:41:58.664Z,26.90
2023-04-01T12:44:37.068Z,26.90
2023-04-01T12:47:43.235Z,26.90
2023-04-01T12:50:32.091Z,26.90
2023-04-01T12:53:14.625Z,26.90
2023-04-01T12:55:43.173Z,26.90
2023-04-01T12:58:56.566Z,26.90
2023-04-01T13:01:54.695Z,26.90
2023-04-01T13:05:08.609Z,26.90
2023-04-01T13:07:52.756Z,26.90
2023-04-01T13:10:33.873Z,26.90
2023-04-01T13:13:34.607Z,26.90
2023-04-01T13:16:12.531Z,26.90
2023-04-01T13:18:50.398Z,26.90
2023-04-01T13:21:26.693Z,26.90
2023-04-01T13:24:01.183Z,26.90
2023-04-01T13:26:38.385Z,26.90
2023-04-01T13:29:13.861Z,26.90
2023-04-01T13:31:55.381Z,27.00
2023-04-01T13:34:33.714Z,27.00
2023-04-01T13:37:15.912Z,27.00
2023-04-01T13:40:13.193Z,27.00
2023-04-01T13:42:49.220Z,27.00
2023-04-01T13:45:20.210Z,27.00
2023-04-01T13:48:09.913Z,27.00
2023-04-01T13:50:56.902Z,27.00
2023-04-01T13:53:42.890Z,27.00
2023-04-01T13:56:20.432Z,27.00
2023-04-01T13:59:00.906Z,27.00
2023-04-01T14:01:37.728Z,27.10
2023-04-01T14:04:35.999Z,27.10
2023-04-01T14:07:15.753Z,27.10
2023-04-01T14:10:15.664Z,27.10
2023-04-01T14:12:49.952Z,27.10
2023-04-01T14:15:30.321Z,27.10
2023-04-01T14:18:17.622Z,27.10
2023-04-01T14:20:55.599Z,27.10
2023-04-01T14:23:53.128Z,27.10
2023-04-01T14:26:57.843Z,27.10
2023-04-01T14:29:32.204Z,27.10
2023-04-01T14:32:12.404Z,27.10
2023-04-01T14:34:56.476Z,27.10
2023-04-01T14:37:56.223Z,27.10
2023-04-01T14:40:35.915Z,27.10
2023-04-01T14:43:23.573Z,27.10
2023-04-01T14:46:21.731Z,27.10
2023-04-01T14:48:58.657Z,27.10
2023-04-01T14:51:33.041Z,27.10
2023-04-01T14:54:06.955Z,27.10
2023-04-01T14:56:43.935Z,27.10
2023-04-01T14:59:17.498Z,27.10
2023-04-01T15:01:53.626Z,27.10
2023-04-01T15:04:39.289Z,27.10
2023-04-01T15:07:37.638Z,27.10
2023-04-01T15:10:20.682Z,27.10
2023-04-01T15:12:56.008Z,27.10
2023-04-01T15:15:33.900Z,27.10
2023-04-01T15:18:11.215Z,27.10
2023-04-01T15:20:58.411Z,27.10
2023-04-01T15:23:36.648Z,27.10
2023-04-01T15:26:27.294Z,27.20
2023-04-01T15:29:08.602Z,27.20
2023-04-01T15:31:42.991Z,27.20
2023-04-01T15:34:38.784Z,27.20
2023-04-01T15:37:15.461Z,27.20
2023-04-01T15:39:56.695Z,27.20
2023-04-01T15:42:43.281Z,27.20
2023-04-01T15:45:20.460Z,27.20
2023-04-01T15:48:01.038Z,27.20
2023-04-01T15:50:46.917Z,27.20
2023-04-01T15:53:32.506Z,27.20
2023-04-01T15:56:12.670Z,27.20
2023-04-01T15:58:53.204Z,27.20
2023-04-01T16:01:35.151Z,27.20
2023-04-01T16:04:17.566Z,27.20
2023-04-01T16:07:01.412Z,27.20
2023-04-01T16:09:51.037Z,27.20
2023-04-01T16:12:26.679Z,27.20
2023-04-01T16:15:09.105Z,27.20
2023-04-01T16:17:59.951Z,27.20
2023-04-01T16:20:45.182Z,27.20
2023-04-01T16:23:20.676Z,27.20
2023-04-01T16:25:57.571Z,27.20
2023-04-01T16:28:31.701Z,27.20
2023-04-01T16:31:01.959Z,27.20
2023-04-01T16:33:39.970Z,27.20
2023-04-01T16:36:14.673Z,27.20
2023-04-01T16:38:49.618Z,27.20
2023-04-01T16:41:22.541Z,27.20
2023-04-01T16:43:55.671Z,27.20
2023-04-01T16:46:31.195Z,27.20
2023-04-01T16:49:17.976Z,27.20
2023-04-01T16:51:51.003Z,27.20
2023-04-01T16:54:31.219Z,27.20
2023-04-01T16:57:06.684Z,27.20
2023-04-01T16:59:38.084Z,27.20
2023-04-01T17:02:12.827Z,27.20
2023-04-01T17:04:46.108Z,27.20
2023-04-01T17:07:24.009Z,27.20
2023-04-01T17:10:04.267Z,27.20
2023-04-01T17:12:39.753Z,27.20
2023-04-01T17:15:18.194Z,27.20
2023-04-01T17:17:53.532Z,27.20
2023-04-01T17:20:33.404Z,27.20
2023-04-01T17:23:06.768Z,27.20
2023-04-01T17:26:02.122Z,27.10
2023-04-01T17:28:43.840Z,27.10
2023-04-01T17:31:20.560Z,27.10
2023-04-01T17:34:01.741Z,27.10
2023-04-01T17:36:40.608Z,27.10
2023-04-01T17:39:24.469Z,27.10
2023-04-01T17:41:56.785Z,27.10
2023-04-01T17:44:37.004Z,27.10
2023-04-01T17:47:24.172Z,27.10
2023-04-01T17:50:02.878Z,27.10
2023-04-01T17:52:35.485Z,27.10
2023-04-01T17:55:32.273Z,27.10
2023-04-01T17:58:05.863Z,27.10
2023-04-01T18:00:52.961Z,27.00
2023-04-01T18:03:46.528Z,27.00
2023-04-01T18:06:19.855Z,27.00
2023-04-01T18:09:00.357Z,27.00
2023-04-01T18:11:41.139Z,27.00
2023-04-01T18:14:47.560Z,27.00
2023-04-01T18:17:23.568Z,27.00
2023-04-01T18:20:02.643Z,27.00
2023-04-01T18:22:39.724Z,27.00
2023-04-01T18:25:18.846Z,27.00
2023-04-01T18:27:50.398Z,27.00
2023-04-01T18:30:22.561Z,27.00
2023-04-01T18:32:55.594Z,27.00
2023-04-01T18:35:30.870Z,27.00
2023-04-01T18:38:05.957Z,27.00
2023-04-01T18:40:38.705Z,27.00
2023-04-01T18:43:20.617Z,27.00
2023-04-01T18:45:53.453Z,27.00
2023-04-01T18:48:40.915Z,27.00
2023-04-01T18:51:16.917Z,27.00
2023-04-01T18:53:50.011Z,27.00
2023-04-01T18:56:27.392Z,27.00
2023-04-01T18:59:01.193Z,27.00
2023-04-01T19:01:38.903Z,27.00
2023-04-01T19:04:17.878Z,27.00
2023-04-01T19:06:50.889Z,26.90
2023-04-01T19:09:22.426Z,26.90
2023-04-01T19:12:01.122Z,26.90
2023-04-01T19:14:39.974Z,27.00
2023-04-01T19:17:18.360Z,26.90
2023-04-01T19:19:56.148Z,27.00
2023-04-01T19:22:43.825Z,26.90
2023-04-01T19:25:34.480Z,26.90
2023-04-01T19:28:09.669Z,26.90
2023-04-01T19:30:53.378Z,26.90
2023-04-01T19:33:33.298Z,26.90
2023-04-01T19:36:12.869Z,26.90
2023-04-01T19:38:43.768Z,26.90
2023-04-01T19:41:29.724Z,26.90
2023-04-01T19:44:05.918Z,26.90
2023-04-01T19:46:38.276Z,26.90
2023-04-01T19:49:23.276Z,26.90
2023-04-01T19:51:59.248Z,26.90
2023-04-01T19:54:34.942Z,26.90
2023-04-01T19:57:15.094Z,26.90
2023-04-01T19:59:49.499Z,26.90
2023-04-01T20:02:53.617Z,27.00
2023-04-01T20:05:46.215Z,26.90
2023-04-01T20:08:20.892Z,26.90
2023-04-01T20:10:57.811Z,26.90
2023-04-01T20:13:35.054Z,26.90
2023-04-01T20:16:06.081Z,26.90
2023-04-01T20:18:43.032Z,26.90
2023-04-01T20:21:26.496Z,26.90
2023-04-01T20:24:01.193Z,26.90
2023-04-01T20:26:34.237Z,26.90
2023-04-01T20:29:16.202Z,26.90
2023-04-01T20:31:46.396Z,26.90
2023-04-01T20:34:25.288Z,26.90
2023-04-01T20:37:14.320Z,26.90
2023-04-01T20:40:11.153Z,26.90
2023-04-01T20:42:56.324Z,26.90
2023-04-01T20:45:35.128Z,26.90
2023-04-01T20:48:27.698Z,26.90
2023-04-01T20:51:00.116Z,26.90
2023-04-01T20:53:33.209Z,26.90
2023-04-01T20:56:16.813Z,26.90
2023-04-01T20:58:53.677Z,26.90
2023-04-01T21:01:34.494Z,26.90
2023-04-01T21:04:19.481Z,26.90
2023-04-01T21:07:02.140Z,26.90
2023-04-01T21:09:43.666Z,26.90
2023-04-01T21:12:23.996Z,26.90
2023-04-01T21:15:03.249Z,26.90
2023-04-01T21:17:50.975Z,26.90
2023-04-01T21:20:45.093Z,26.90
2023-04-01T21:23:33.953Z,26.80
2023-04-01T21:26:10.268Z,26.80
2023-04-01T21:28:54.569Z,26.80
2023-04-01T21:31:36.957Z,26.70
2023-04-01T21:34:29.855Z,26.70
2023-04-01T21:37:08.230Z,26.70
2023-04-01T21:39:50.601Z,26.70
2023-04-01T21:42:33.827Z,26.60
2023-04-01T21:45:27.151Z,26.60
2023-04-01T21:48:16.598Z,26.50
2023-04-01T21:51:06.212Z,26.50
2023-04-01T21:53:51.278Z,26.50
2023-04-01T21:56:55.596Z,26.40
2023-04-01T22:00:06.965Z,26.40
2023-04-01T22:03:23.916Z,26.40
2023-04-01T22:06:02.037Z,26.30
2023-04-01T22:08:42.040Z,26.30
2023-04-01T22:11:26.623Z,26.30
2023-04-01T22:14:05.262Z,26.30
2023-04-01T22:16:40.653Z,26.30
2023-04-01T22:19:16.685Z,26.30
2023-04-01T22:21:53.961Z,26.20
2023-04-01T22:24:28.799Z,26.20
2023-04-01T22:27:02.480Z,26.20
2023-04-01T22:29:36.470Z,26.20
2023-04-01T22:32:09.344Z,26.20
2023-04-01T22:34:42.142Z,26.20
2023-04-01T22:37:20.332Z,26.20
2023-04-01T22:39:59.315Z,26.20
2023-04-01T22:42:39.693Z,26.20
2023-04-01T22:45:23.900Z,26.10
2023-04-01T22:48:02.289Z,26.10
2023-04-01T22:50:35.237Z,26.10
2023-04-01T22:53:15.756Z,26.10
2023-04-01T22:55:52.802Z,26.10
2023-04-01T22:58:28.192Z,26.10
2023-04-01T23:00:59.931Z,26.10
2023-04-01T23:03:30.930Z,26.10
2023-04-01T23:06:00.514Z,26.10
2023-04-01T23:08:44.100Z,26.10
2023-04-01T23:11:18.137Z,26.10
2023-04-01T23:13:49.383Z,26.00
2023-04-01T23:16:19.319Z,26.00
2023-04-01T23:18:53.563Z,26.00
2023-04-01T23:21:28.690Z,26.00
2023-04-01T23:24:07.269Z,26.00
2023-04-01T23:26:41.014Z,26.00
2023-04-01T23:29:15.253Z,26.00
2023-04-01T23:31:44.149Z,26.00
2023-04-01T23:34:30.759Z,26.00
2023-04-01T23:37:02.708Z,26.00
2023-04-01T23:39:34.908Z,26.00
2023-04-01T23:42:05.890Z,26.00
2023-04-01T23:44:34.716Z,26.00
2023-04-01T23:47:04.825Z,25.90
2023-04-01T23:49:37.107Z,25.90
2023-04-01T23:52:12.248Z,25.90
2023-04-01T23:54:45.659Z,25.90
2023-04-01T23:57:17.242Z,25.90
2023-04-01T23:59:45.080Z,25.90
